createdAt,value
2022-12-16T00:00:10.110Z,18.17
2022-12-16T00:02:37.267Z,16.43
2022-12-16T00:05:05.237Z,18.27
2022-12-16T00:07:32.255Z,16.60
2022-12-16T00:09:59.264Z,19.17
2022-12-16T00:12:26.833Z,16.97
2022-12-16T00:14:53.847Z,17.90
2022-12-16T00:17:21.895Z,19.17
2022-12-16T00:19:48.944Z,18.07
2022-12-16T00:22:16.110Z,16.47
2022-12-16T00:24:43.064Z,17.53
2022-12-16T00:27:10.102Z,18.90
2022-12-16T00:29:37.111Z,16.40
2022-12-16T00:32:04.650Z,15.90
2022-12-16T00:34:31.888Z,17.93
2022-12-16T00:36:59.492Z,17.23
2022-12-16T00:39:26.558Z,15.43
2022-12-16T00:41:53.544Z,15.13
2022-12-16T00:44:21.886Z,16.87
2022-12-16T00:46:48.892Z,16.30
2022-12-16T00:49:15.872Z,16.00
2022-12-16T00:51:42.901Z,17.00
2022-12-16T00:54:09.912Z,16.60
2022-12-16T00:56:36.921Z,16.53
2022-12-16T00:59:03.954Z,15.97
2022-12-16T01:01:31.058Z,15.13
2022-12-16T01:03:58.317Z,18.23
2022-12-16T01:06:25.476Z,18.07
2022-12-16T01:08:52.530Z,16.37
2022-12-16T01:11:22.113Z,18.37
2022-12-16T01:13:55.180Z,15.60
2022-12-16T01:16:22.713Z,16.47
2022-12-16T01:18:49.793Z,18.23
2022-12-16T01:21:17.214Z,18.30
2022-12-16T01:23:44.312Z,17.93
2022-12-16T01:26:18.088Z,16.33
2022-12-16T01:28:48.336Z,15.80
2022-12-16T01:31:20.715Z,17.33
2022-12-16T01:33:48.254Z,17.60
2022-12-16T01:36:15.271Z,15.50
2022-12-16T01:38:44.393Z,16.00
2022-12-16T01:41:15.289Z,16.47
2022-12-16T01:43:45.389Z,17.83
2022-12-16T01:46:20.829Z,17.03
2022-12-16T01:49:08.089Z,18.07
2022-12-16T01:51:52.073Z,17.40
2022-12-16T01:54:30.902Z,16.70
2022-12-16T01:57:07.132Z,17.40
2022-12-16T01:59:39.341Z,16.27
2022-12-16T02:05:06.971Z,16.57
2022-12-16T02:07:34.117Z,16.93
2022-12-16T02:10:01.217Z,18.47
2022-12-16T02:13:04.570Z,17.77
2022-12-16T02:16:03.673Z,17.37
2022-12-16T02:19:19.405Z,17.57
2022-12-16T02:22:30.060Z,17.03
2022-12-16T02:25:47.805Z,17.97
2022-12-16T02:29:04.823Z,16.10
2022-12-16T02:32:19.517Z,17.73
2022-12-16T02:35:38.806Z,17.87
2022-12-16T02:38:56.472Z,15.17
2022-12-16T02:42:21.289Z,16.63
2022-12-16T02:45:19.911Z,16.57
2022-12-16T02:47:47.278Z,15.57
2022-12-16T02:50:27.412Z,15.80
2022-12-16T02:52:55.934Z,14.40
2022-12-16T02:56:47.502Z,15.67
2022-12-16T02:59:57.918Z,15.70
2022-12-16T03:02:41.879Z,15.30
2022-12-16T03:05:50.863Z,16.50
2022-12-16T03:08:41.774Z,15.87
2022-12-16T03:11:09.030Z,16.07
2022-12-16T03:13:53.158Z,15.93
2022-12-16T03:16:27.298Z,14.80
2022-12-16T03:19:01.292Z,13.70
2022-12-16T03:21:49.164Z,16.23
2022-12-16T03:24:16.519Z,17.57
2022-12-16T03:27:11.774Z,14.90
2022-12-16T03:30:06.661Z,14.60
2022-12-16T03:32:48.712Z,17.50
2022-12-16T03:35:49.512Z,16.47
2022-12-16T03:38:17.260Z,17.07
2022-12-16T03:40:45.389Z,15.80
2022-12-16T03:43:15.266Z,14.87
2022-12-16T03:45:46.161Z,15.67
2022-12-16T03:48:15.542Z,17.63
2022-12-16T03:50:42.685Z,16.43
2022-12-16T03:53:09.757Z,16.60
2022-12-16T03:55:36.834Z,15.37
2022-12-16T03:58:04.006Z,16.83
2022-12-16T04:00:31.005Z,23.60
2022-12-16T04:02:58.218Z,18.30
2022-12-16T04:05:25.717Z,19.03
2022-12-16T04:07:54.398Z,17.30
2022-12-16T04:10:43.075Z,16.13
2022-12-16T04:13:30.478Z,15.73
2022-12-16T04:16:16.539Z,15.47
2022-12-16T04:19:02.491Z,16.57
2022-12-16T04:22:04.776Z,15.40
2022-12-16T04:24:32.670Z,14.73
2022-12-16T04:27:18.121Z,15.23
2022-12-16T04:30:03.566Z,14.73
2022-12-16T04:32:50.687Z,13.97
2022-12-16T04:35:36.317Z,15.33
2022-12-16T04:38:22.664Z,16.50
2022-12-16T04:41:08.178Z,16.13
2022-12-16T04:43:53.791Z,16.23
2022-12-16T04:46:39.797Z,15.20
2022-12-16T04:49:25.238Z,17.63
2022-12-16T04:52:11.236Z,15.43
2022-12-16T04:54:57.050Z,14.83
2022-12-16T04:57:42.474Z,13.83
2022-12-16T05:00:28.909Z,15.00
2022-12-16T05:03:17.412Z,16.17
2022-12-16T05:06:03.159Z,14.50
2022-12-16T05:08:48.892Z,15.13
2022-12-16T05:11:34.758Z,14.43
2022-12-16T05:14:20.067Z,14.50
2022-12-16T05:17:06.034Z,12.47
2022-12-16T05:19:51.893Z,15.27
2022-12-16T05:22:37.494Z,14.20
2022-12-16T05:25:24.033Z,13.27
2022-12-16T05:28:11.701Z,15.13
2022-12-16T05:30:58.568Z,15.47
2022-12-16T05:33:44.140Z,13.47
2022-12-16T05:36:29.502Z,12.60
2022-12-16T05:39:15.206Z,14.43
2022-12-16T05:42:01.307Z,14.63
2022-12-16T05:44:46.961Z,15.37
2022-12-16T05:47:33.073Z,14.73
2022-12-16T05:50:18.777Z,13.47
2022-12-16T05:53:12.289Z,13.70
2022-12-16T05:55:59.026Z,14.50
2022-12-16T05:58:46.287Z,14.73
2022-12-16T06:01:34.368Z,12.97
2022-12-16T06:04:20.346Z,14.17
2022-12-16T06:07:09.418Z,14.43
2022-12-16T06:09:57.019Z,14.37
2022-12-16T06:12:42.921Z,14.40
2022-12-16T06:15:29.558Z,13.53
2022-12-16T06:18:15.823Z,13.83
2022-12-16T06:21:01.640Z,13.13
2022-12-16T06:23:47.775Z,14.97
2022-12-16T06:26:33.423Z,13.57
2022-12-16T06:29:19.192Z,13.67
2022-12-16T06:32:04.897Z,13.70
2022-12-16T06:34:50.660Z,14.70
2022-12-16T06:37:36.134Z,12.93
2022-12-16T06:40:22.270Z,16.77
2022-12-16T06:43:08.123Z,14.50
2022-12-16T06:45:53.924Z,14.20
2022-12-16T06:48:39.409Z,15.20
2022-12-16T06:51:25.381Z,15.37
2022-12-16T06:54:11.290Z,15.43
2022-12-16T06:56:56.716Z,17.20
2022-12-16T06:59:42.997Z,16.33
2022-12-16T07:02:30.783Z,17.07
2022-12-16T07:05:16.559Z,15.83
2022-12-16T07:08:09.780Z,15.00
2022-12-16T07:11:13.813Z,15.60
2022-12-16T07:14:02.007Z,15.40
2022-12-16T07:16:50.114Z,15.40
2022-12-16T07:19:38.983Z,15.63
2022-12-16T07:22:24.459Z,15.97
2022-12-16T07:25:09.868Z,15.80
2022-12-16T07:27:55.183Z,16.00
2022-12-16T07:30:41.165Z,16.00
2022-12-16T07:33:26.810Z,17.50
2022-12-16T07:36:12.546Z,16.77
2022-12-16T07:38:58.200Z,16.27
2022-12-16T07:41:44.352Z,17.47
2022-12-16T07:44:46.528Z,16.87
2022-12-16T07:47:32.206Z,16.13
2022-12-16T07:50:18.575Z,17.67
2022-12-16T07:53:04.470Z,15.90
2022-12-16T07:55:52.993Z,18.03
2022-12-16T07:58:39.777Z,14.87
2022-12-16T08:01:25.456Z,17.77
2022-12-16T08:04:11.253Z,15.57
2022-12-16T08:06:57.105Z,17.87
2022-12-16T08:09:42.908Z,16.93
2022-12-16T08:12:28.581Z,17.37
2022-12-16T08:15:14.588Z,17.97
2022-12-16T08:18:11.402Z,17.00
2022-12-16T08:20:57.107Z,16.90
2022-12-16T08:23:43.292Z,16.33
2022-12-16T08:26:28.847Z,16.20
2022-12-16T08:29:42.434Z,17.70
2022-12-16T08:32:20.618Z,19.50
2022-12-16T08:35:06.061Z,17.10
2022-12-16T08:37:52.052Z,20.10
2022-12-16T08:40:38.580Z,18.53
2022-12-16T08:43:24.093Z,20.03
2022-12-16T08:46:12.752Z,23.43
2022-12-16T08:48:58.546Z,18.57
2022-12-16T08:51:44.830Z,22.17
2022-12-16T08:54:30.646Z,20.57
2022-12-16T08:57:16.747Z,20.87
2022-12-16T09:00:02.545Z,20.83
2022-12-16T09:02:48.347Z,21.80
2022-12-16T09:05:34.008Z,29.13
2022-12-16T09:08:22.524Z,17.07
2022-12-16T09:11:08.365Z,23.27
2022-12-16T09:13:53.869Z,18.17
2022-12-16T09:16:40.267Z,25.57
2022-12-16T09:19:26.049Z,35.13
2022-12-16T09:22:11.883Z,59.33
2022-12-16T09:24:57.304Z,24.17
2022-12-16T09:27:42.683Z,28.00
2022-12-16T09:30:33.857Z,24.87
2022-12-16T09:33:24.290Z,15.67
2022-12-16T09:36:10.103Z,22.57
2022-12-16T09:38:55.531Z,22.73
2022-12-16T09:42:21.340Z,22.70
2022-12-16T09:45:23.030Z,22.03
2022-12-16T09:48:23.933Z,25.80
2022-12-16T09:51:14.456Z,22.37
2022-12-16T09:54:03.268Z,22.10
2022-12-16T09:56:55.271Z,21.60
2022-12-16T09:59:49.895Z,21.87
2022-12-16T10:02:38.953Z,20.43
2022-12-16T10:05:38.647Z,20.20
2022-12-16T10:08:36.534Z,20.07
2022-12-16T10:11:38.226Z,21.90
2022-12-16T10:14:41.104Z,19.30
2022-12-16T10:17:43.489Z,22.27
2022-12-16T10:21:03.228Z,24.50
2022-12-16T10:24:51.906Z,24.90
2022-12-16T10:27:56.232Z,25.20
2022-12-16T10:30:41.711Z,25.77
2022-12-16T10:33:33.213Z,23.40
2022-12-16T10:36:19.284Z,24.70
2022-12-16T10:39:20.896Z,27.83
2022-12-16T10:42:12.268Z,29.03
2022-12-16T10:45:19.653Z,27.33
2022-12-16T10:48:05.361Z,23.37
2022-12-16T10:50:51.770Z,27.10
2022-12-16T10:53:46.858Z,28.97
2022-12-16T10:57:10.173Z,27.13
2022-12-16T10:59:59.442Z,27.97
2022-12-16T11:02:48.099Z,27.63
2022-12-16T11:05:53.813Z,31.90
2022-12-16T11:08:50.835Z,26.97
2022-12-16T11:11:42.539Z,31.00
2022-12-16T11:15:05.985Z,27.97
2022-12-16T11:17:56.486Z,34.83
2022-12-16T11:20:44.707Z,29.10
2022-12-16T11:23:45.534Z,28.47
2022-12-16T11:26:37.485Z,30.17
2022-12-16T11:29:40.034Z,29.33
2022-12-16T11:32:43.834Z,31.47
2022-12-16T11:35:38.672Z,29.33
2022-12-16T11:38:42.310Z,28.27
2022-12-16T11:41:47.978Z,27.87
2022-12-16T11:44:48.535Z,31.47
2022-12-16T11:48:00.585Z,31.87
2022-12-16T11:50:50.667Z,30.03
2022-12-16T12:01:21.529Z,27.17
2022-12-16T12:04:10.511Z,27.93
2022-12-16T12:07:45.495Z,26.77
2022-12-16T12:11:19.963Z,29.33
2022-12-16T12:14:31.628Z,33.00
2022-12-16T12:18:04.141Z,24.53
2022-12-16T12:21:24.677Z,26.33
2022-12-16T12:24:28.856Z,25.43
2022-12-16T12:28:13.805Z,28.43
2022-12-16T12:31:52.580Z,29.77
2022-12-16T12:35:18.838Z,31.80
2022-12-16T12:38:50.247Z,30.63
2022-12-16T12:42:23.192Z,29.07
2022-12-16T12:45:55.521Z,30.43
2022-12-16T12:49:00.986Z,29.10
2022-12-16T12:52:05.048Z,28.23
2022-12-16T12:55:07.268Z,27.37
2022-12-16T12:57:56.366Z,29.33
2022-12-16T13:00:47.627Z,25.07
2022-12-16T13:03:51.892Z,30.27
2022-12-16T13:06:40.969Z,27.57
2022-12-16T13:09:56.549Z,25.57
2022-12-16T13:12:47.888Z,27.63
2022-12-16T13:15:57.201Z,26.93
2022-12-16T13:18:51.703Z,24.27
2022-12-16T13:21:56.820Z,27.10
2022-12-16T13:24:55.034Z,25.50
2022-12-16T13:27:46.845Z,26.33
2022-12-16T13:30:37.794Z,24.10
2022-12-16T13:33:49.160Z,27.17
2022-12-16T13:36:37.581Z,26.33
2022-12-16T13:39:47.555Z,30.90
2022-12-16T13:43:02.464Z,28.77
2022-12-16T13:46:22.212Z,28.10
2022-12-16T13:49:08.740Z,29.80
2022-12-16T13:51:57.706Z,30.87
2022-12-16T13:55:10.317Z,31.03
2022-12-16T13:58:01.938Z,30.47
2022-12-16T14:00:52.217Z,27.83
2022-12-16T14:04:01.207Z,27.40
2022-12-16T14:06:50.076Z,29.33
2022-12-16T14:09:52.583Z,27.40
2022-12-16T14:13:21.754Z,30.20
2022-12-16T14:16:52.412Z,29.57
2022-12-16T14:20:08.053Z,29.03
2022-12-16T14:23:39.310Z,28.90
2022-12-16T14:26:30.551Z,28.97
2022-12-16T14:29:16.367Z,28.50
2022-12-16T14:32:03.459Z,31.00
2022-12-16T14:34:55.213Z,31.20
2022-12-16T14:37:53.889Z,30.47
2022-12-16T14:40:50.885Z,28.67
2022-12-16T14:43:44.815Z,26.07
2022-12-16T14:46:50.894Z,26.20
2022-12-16T14:49:48.090Z,28.33
2022-12-16T14:52:43.355Z,27.00
2022-12-16T14:55:44.386Z,25.70
2022-12-16T14:58:39.912Z,25.40
2022-12-16T15:01:37.373Z,26.47
2022-12-16T15:04:33.036Z,26.07
2022-12-16T15:10:33.449Z,26.93
2022-12-16T15:13:24.040Z,29.77
2022-12-16T15:16:10.003Z,28.77
2022-12-16T15:19:04.934Z,33.23
2022-12-16T15:19:15.660Z,28.37
2022-12-16T15:21:54.623Z,26.37
2022-12-16T15:24:44.365Z,27.73
2022-12-16T15:27:39.818Z,29.23
2022-12-16T15:31:02.666Z,27.07
2022-12-16T15:33:55.286Z,28.47
2022-12-16T15:36:55.760Z,28.30
2022-12-16T15:39:53.089Z,36.47
2022-12-16T15:42:43.824Z,39.73
2022-12-16T15:45:51.225Z,30.43
2022-12-16T15:48:53.207Z,32.43
2022-12-16T15:52:00.188Z,28.43
2022-12-16T15:54:46.119Z,28.77
2022-12-16T15:57:53.480Z,28.80
2022-12-16T16:00:49.192Z,28.87
2022-12-16T16:03:58.737Z,30.57
2022-12-16T16:06:45.715Z,29.03
2022-12-16T16:09:52.924Z,28.23
2022-12-16T16:12:43.513Z,27.40
2022-12-16T16:15:33.208Z,29.43
2022-12-16T16:18:24.511Z,29.03
2022-12-16T16:21:10.709Z,28.07
2022-12-16T16:23:56.106Z,31.80
2022-12-16T16:26:46.487Z,30.73
2022-12-16T16:29:32.627Z,33.00
2022-12-16T16:32:18.265Z,35.00
2022-12-16T16:35:03.694Z,33.20
2022-12-16T16:37:49.363Z,30.83
2022-12-16T16:40:55.873Z,32.53
2022-12-16T16:43:43.294Z,31.83
2022-12-16T16:46:53.324Z,30.23
2022-12-16T16:49:49.926Z,30.77
2022-12-16T16:52:42.440Z,33.87
2022-12-16T16:55:41.223Z,29.90
2022-12-16T16:58:46.246Z,29.77
2022-12-16T17:01:35.733Z,31.90
2022-12-16T17:04:22.238Z,30.23
2022-12-16T17:07:08.086Z,30.30
2022-12-16T17:09:53.811Z,30.10
2022-12-16T17:12:46.953Z,31.03
2022-12-16T17:15:44.762Z,29.33
2022-12-16T17:18:30.549Z,30.20
2022-12-16T17:21:16.260Z,31.43
2022-12-16T17:24:01.685Z,28.97
2022-12-16T17:26:47.289Z,31.60
2022-12-16T17:29:44.342Z,30.40
2022-12-16T17:32:30.907Z,29.87
2022-12-16T17:35:17.387Z,31.27
2022-12-16T17:38:03.334Z,33.47
2022-12-16T17:40:48.729Z,31.97
2022-12-16T17:43:34.469Z,31.47
2022-12-16T17:46:28.879Z,33.27
2022-12-16T17:49:17.428Z,30.90
2022-12-16T17:52:02.904Z,31.47
2022-12-16T17:54:48.830Z,30.73
2022-12-16T17:57:34.633Z,35.63
2022-12-16T18:00:20.643Z,32.63
2022-12-16T18:03:06.140Z,33.37
2022-12-16T18:05:51.899Z,33.87
2022-12-16T18:08:37.466Z,33.13
2022-12-16T18:11:23.459Z,33.10
2022-12-16T18:14:08.934Z,34.40
2022-12-16T18:16:54.321Z,33.50
2022-12-16T18:19:39.755Z,33.73
2022-12-16T18:22:25.195Z,34.37
2022-12-16T18:25:10.522Z,34.00
2022-12-16T18:27:56.518Z,39.83
2022-12-16T18:30:42.402Z,40.50
2022-12-16T18:33:29.779Z,36.07
2022-12-16T18:36:15.251Z,34.63
2022-12-16T18:39:01.119Z,34.57
2022-12-16T18:41:46.611Z,36.10
2022-12-16T18:44:33.063Z,34.67
2022-12-16T18:47:19.138Z,34.33
2022-12-16T18:50:04.839Z,35.07
2022-12-16T18:52:50.808Z,31.80
2022-12-16T18:55:36.315Z,32.00
2022-12-16T18:58:49.596Z,32.23
2022-12-16T19:01:30.260Z,33.83
2022-12-16T19:04:16.575Z,33.30
2022-12-16T19:07:02.093Z,30.83
2022-12-16T19:09:47.478Z,31.17
2022-12-16T19:12:32.810Z,33.10
2022-12-16T19:15:18.307Z,28.50
2022-12-16T19:18:03.852Z,33.37
2022-12-16T19:20:49.213Z,32.13
2022-12-16T19:23:35.143Z,38.60
2022-12-16T19:26:21.190Z,35.53
2022-12-16T19:29:06.991Z,33.73
2022-12-16T19:31:52.453Z,32.63
2022-12-16T19:34:41.853Z,33.40
2022-12-16T19:37:27.501Z,34.53
2022-12-16T19:40:12.812Z,36.90
2022-12-16T19:42:58.428Z,36.87
2022-12-16T19:45:43.792Z,38.23
2022-12-16T19:48:29.215Z,37.10
2022-12-16T19:51:20.517Z,34.77
2022-12-16T19:54:07.124Z,35.23
2022-12-16T19:56:53.133Z,39.37
2022-12-16T19:59:41.029Z,38.63
2022-12-16T20:02:30.789Z,38.60
2022-12-16T20:05:16.708Z,40.40
2022-12-16T20:08:01.991Z,39.40
2022-12-16T20:10:47.387Z,40.50
2022-12-16T20:13:32.899Z,39.50
2022-12-16T20:16:30.264Z,42.53
2022-12-16T20:19:16.151Z,42.37
2022-12-16T20:22:06.434Z,41.10
2022-12-16T20:24:56.187Z,41.07
2022-12-16T20:27:42.904Z,42.10
2022-12-16T20:30:29.648Z,54.37
2022-12-16T20:33:15.126Z,38.80
2022-12-16T20:36:00.652Z,44.80
2022-12-16T20:38:46.120Z,43.30
2022-12-16T20:41:31.609Z,41.93
2022-12-16T20:44:16.953Z,38.27
2022-12-16T20:47:02.398Z,40.23
2022-12-16T20:49:47.942Z,47.27
2022-12-16T20:52:40.791Z,43.87
2022-12-16T20:55:26.665Z,51.10
2022-12-16T20:58:12.340Z,44.00
2022-12-16T21:00:58.504Z,46.23
2022-12-16T21:03:45.226Z,53.87
2022-12-16T21:06:30.911Z,61.53
2022-12-16T21:09:16.555Z,51.03
2022-12-16T21:12:02.086Z,53.97
2022-12-16T21:14:47.518Z,59.73
2022-12-16T21:17:32.804Z,57.13
2022-12-16T21:20:18.259Z,57.23
2022-12-16T21:23:08.133Z,56.23
2022-12-16T21:25:56.577Z,64.53
2022-12-16T21:28:42.085Z,74.07
2022-12-16T21:31:27.710Z,77.13
2022-12-16T21:34:13.516Z,63.47
2022-12-16T21:37:02.229Z,57.93
2022-12-16T21:39:47.728Z,63.03
2022-12-16T21:42:38.601Z,65.70
2022-12-16T21:45:27.766Z,52.50
2022-12-16T21:48:13.470Z,59.83
2022-12-16T21:50:59.227Z,64.73
2022-12-16T21:53:44.937Z,73.53
2022-12-16T21:56:30.991Z,77.80
2022-12-16T21:59:16.481Z,59.50
2022-12-16T22:02:02.461Z,67.33
2022-12-16T22:04:48.149Z,62.60
2022-12-16T22:07:33.697Z,69.90
2022-12-16T22:10:19.268Z,69.40
2022-12-16T22:13:04.808Z,62.10
2022-12-16T22:15:58.107Z,65.17
2022-12-16T22:18:47.007Z,63.30
2022-12-16T22:21:32.619Z,59.73
2022-12-16T22:24:18.305Z,54.73
2022-12-16T22:27:04.102Z,58.87
2022-12-16T22:29:49.736Z,69.63
2022-12-16T22:32:35.294Z,73.67
2022-12-16T22:35:20.828Z,69.17
2022-12-16T22:38:06.269Z,64.37
2022-12-16T22:40:51.742Z,72.70
2022-12-16T22:43:38.172Z,63.60
2022-12-16T22:46:23.959Z,71.07
2022-12-16T22:49:09.308Z,85.30
2022-12-16T22:51:55.504Z,65.67
2022-12-16T22:54:42.272Z,60.73
2022-12-16T22:57:28.884Z,63.40
2022-12-16T23:00:14.257Z,75.33
2022-12-16T23:03:13.389Z,76.43
2022-12-16T23:05:58.885Z,73.40
2022-12-16T23:08:45.514Z,79.03
2022-12-16T23:11:49.843Z,80.37
2022-12-16T23:14:40.887Z,71.10
2022-12-16T23:17:30.190Z,66.20
2022-12-16T23:20:16.138Z,75.30
2022-12-16T23:23:01.553Z,61.47
2022-12-16T23:25:46.962Z,65.63
2022-12-16T23:28:32.444Z,82.90
2022-12-16T23:31:18.260Z,76.97
2022-12-16T23:34:03.863Z,91.77
2022-12-16T23:36:49.335Z,68.07
2022-12-16T23:39:34.878Z,59.23
2022-12-16T23:42:20.461Z,61.67
2022-12-16T23:45:06.103Z,55.90
2022-12-16T23:47:51.535Z,62.97
2022-12-16T23:50:37.338Z,54.33
2022-12-16T23:53:28.886Z,58.87
2022-12-16T23:56:20.191Z,54.53
2022-12-16T23:59:08.943Z,52.13
